Terminal Aerodrome Forecast
Issued by NWS

Home | Current Version | Previous Version | Text Only | Print | Product List | Glossary On
Versions: 1 2 3 4 5 6 7 8 9 10 11 12 13 14
423
FTUS42 TJSJ 251739
TAFJBQ
TAF
TJBQ 251739Z 2518/2618 18008G15KT P6SM VCSH SCT030 SCT050
      TEMPO 2519/2522 4SM -TSRA BKN025CB BKN050 OVC090
     FM252300 19004KT P6SM VCSH SCT025 BKN060
     FM261400 24004KT P6SM VCSH SCT025 BKN050=

USA.gov is the U.S. government's official web portal to all federal, state and local government web resources and services.